Time;durP1;ratioP1;P1;durP2;ratioP2;P2;SDS_P1;SDS_P2;PMS_P1;PMS_P2;Temp;Humidity;BMP_temperature;BMP_pressure;BME280_temperature;BME280_humidity;BME280_pressure;Samples;Min_cycle;Max_cycle;Signal;HPM_P1;HPM_P2
2021/12/13 00:00:35;;;;;;;7.05;4.95;;;4.80;99.90;;;;;;503085;236;27499;-74
2021/12/13 00:02:37;;;;;;;6.62;5.05;;;4.80;99.90;;;;;;503074;236;27475;-74
2021/12/13 00:04:38;;;;;;;7.00;5.37;;;4.80;99.90;;;;;;503029;236;27496;-74
2021/12/13 00:06:39;;;;;;;7.35;5.10;;;4.80;99.90;;;;;;503075;236;27443;-74
2021/12/13 00:08:40;;;;;;;7.05;4.95;;;4.80;99.90;;;;;;503082;236;27817;-74
2021/12/13 00:10:41;;;;;;;6.90;4.90;;;4.90;99.90;;;;;;503054;236;27810;-74
2021/12/13 00:12:43;;;;;;;6.75;5.40;;;4.80;99.90;;;;;;503089;236;27451;-74
2021/12/13 00:14:44;;;;;;;5.72;4.50;;;4.90;99.90;;;;;;503101;236;27926;-74
2021/12/13 00:16:45;;;;;;;5.87;4.03;;;4.90;99.90;;;;;;503085;236;28005;-74
2021/12/13 00:18:46;;;;;;;5.62;4.47;;;4.90;99.90;;;;;;503061;236;27963;-73
2021/12/13 00:20:48;;;;;;;6.15;4.45;;;4.80;99.90;;;;;;503115;236;27491;-75
2021/12/13 00:22:49;;;;;;;5.60;4.25;;;4.90;99.90;;;;;;503107;236;27525;-74
2021/12/13 00:24:50;;;;;;;7.07;5.25;;;4.80;99.90;;;;;;503119;236;27563;-74
2021/12/13 00:26:51;;;;;;;7.00;5.28;;;4.90;99.90;;;;;;503107;236;27440;-74
2021/12/13 00:28:53;;;;;;;7.97;5.12;;;4.90;99.90;;;;;;503095;236;27478;-74
2021/12/13 00:30:54;;;;;;;7.37;4.97;;;4.80;99.90;;;;;;503020;236;27996;-74
2021/12/13 00:32:56;;;;;;;6.93;4.70;;;4.80;99.90;;;;;;503099;236;27447;-75
2021/12/13 00:34:56;;;;;;;5.97;4.40;;;4.80;99.90;;;;;;503030;236;27485;-74
2021/12/13 00:36:58;;;;;;;5.80;4.60;;;4.90;99.90;;;;;;503091;236;27466;-74
2021/12/13 00:38:59;;;;;;;5.40;4.68;;;4.90;99.90;;;;;;503071;236;28011;-74
2021/12/13 00:41:00;;;;;;;5.75;4.20;;;4.80;99.90;;;;;;503110;236;28057;-74
2021/12/13 00:43:01;;;;;;;6.45;4.60;;;4.80;99.90;;;;;;503098;236;27897;-74
2021/12/13 00:45:05;;;;;;;6.47;5.20;;;4.80;99.90;;;;;;503071;236;27494;-74
2021/12/13 00:47:04;;;;;;;6.50;4.60;;;4.80;99.90;;;;;;502940;236;27435;-74
2021/12/13 00:49:05;;;;;;;4.97;4.50;;;4.80;99.90;;;;;;503074;236;27486;-74
2021/12/13 00:51:06;;;;;;;6.30;4.65;;;4.80;99.90;;;;;;503085;236;27557;-74
2021/12/13 00:53:08;;;;;;;5.65;4.28;;;4.80;99.90;;;;;;503090;236;27441;-74
2021/12/13 00:55:09;;;;;;;6.35;4.97;;;4.80;99.90;;;;;;503101;236;27515;-74
2021/12/13 00:57:10;;;;;;;5.37;4.40;;;4.80;99.90;;;;;;503049;236;27425;-74
2021/12/13 00:59:11;;;;;;;4.53;4.10;;;4.80;99.90;;;;;;503086;236;27947;-74
2021/12/13 01:01:13;;;;;;;6.12;4.40;;;4.80;99.90;;;;;;503081;236;28653;-74
2021/12/13 01:03:14;;;;;;;4.50;4.00;;;4.80;99.90;;;;;;503069;236;28017;-74
2021/12/13 01:05:15;;;;;;;5.45;4.30;;;4.80;99.90;;;;;;503079;236;27540;-74
2021/12/13 01:07:16;;;;;;;4.35;3.72;;;4.80;99.90;;;;;;503068;236;27595;-74
2021/12/13 01:09:18;;;;;;;4.62;4.10;;;4.80;99.90;;;;;;503066;236;27581;-74
2021/12/13 01:11:19;;;;;;;5.20;4.03;;;4.90;99.90;;;;;;503079;236;27509;-74
2021/12/13 01:13:20;;;;;;;4.43;4.00;;;4.80;99.90;;;;;;503081;236;27486;-74
2021/12/13 01:15:29;;;;;;;5.47;4.00;;;4.80;99.90;;;;;;503034;236;27588;-74
2021/12/13 01:17:35;;;;;;;7.37;4.95;;;4.80;99.90;;;;;;502466;236;27552;-74
2021/12/13 01:19:28;;;;;;;6.03;4.87;;;4.80;99.90;;;;;;502032;236;27478;-74
2021/12/13 01:21:32;;;;;;;7.75;5.20;;;4.80;99.90;;;;;;502731;236;27431;-74
2021/12/13 01:23:44;;;;;;;5.70;4.43;;;4.80;99.90;;;;;;502737;236;27522;-74
2021/12/13 01:25:48;;;;;;;6.37;4.43;;;4.80;99.90;;;;;;502859;236;27526;-74
2021/12/13 01:27:47;;;;;;;5.28;4.55;;;4.80;99.90;;;;;;502841;236;28056;-74
2021/12/13 01:29:48;;;;;;;6.20;4.37;;;4.80;99.90;;;;;;503065;236;27988;-74
2021/12/13 01:31:49;;;;;;;5.00;4.50;;;4.80;99.90;;;;;;503008;236;27469;-74
2021/12/13 01:33:50;;;;;;;6.03;4.55;;;4.80;99.90;;;;;;503071;236;27466;-74
2021/12/13 01:35:52;;;;;;;6.05;4.45;;;4.80;99.90;;;;;;503101;236;27430;-74
2021/12/13 01:37:54;;;;;;;7.10;4.28;;;4.80;99.90;;;;;;503083;236;27546;-74
2021/12/13 01:39:56;;;;;;;9.02;5.22;;;4.80;99.90;;;;;;503059;236;27481;-74
2021/12/13 01:41:58;;;;;;;5.60;4.30;;;4.80;99.90;;;;;;502985;236;27446;-74
2021/12/13 01:43:57;;;;;;;6.43;4.62;;;4.80;99.90;;;;;;502839;236;27573;-75
2021/12/13 01:45:58;;;;;;;7.75;5.30;;;4.80;99.90;;;;;;503091;236;27438;-74
2021/12/13 01:47:59;;;;;;;6.50;5.03;;;4.70;99.90;;;;;;503086;236;27475;-74
2021/12/13 01:50:00;;;;;;;5.43;4.53;;;4.80;99.90;;;;;;503090;236;28046;-74
2021/12/13 01:52:02;;;;;;;6.72;5.20;;;4.80;99.90;;;;;;503038;236;27938;-74
2021/12/13 01:54:03;;;;;;;6.70;5.22;;;4.80;99.90;;;;;;503067;236;27989;-74
2021/12/13 01:56:10;;;;;;;5.68;4.35;;;4.80;99.90;;;;;;503081;236;27440;-74
2021/12/13 01:58:19;;;;;;;5.53;4.40;;;4.80;99.90;;;;;;502535;236;27569;-74
2021/12/13 02:00:17;;;;;;;5.85;4.50;;;4.80;99.90;;;;;;501828;236;27489;-74
2021/12/13 02:02:11;;;;;;;7.72;5.30;;;4.80;99.90;;;;;;502466;236;27989;-74
2021/12/13 02:04:14;;;;;;;5.95;4.55;;;4.80;99.90;;;;;;503077;236;27900;-74
2021/12/13 02:06:13;;;;;;;6.22;4.03;;;4.80;99.90;;;;;;502971;236;27477;-74
2021/12/13 02:08:15;;;;;;;5.70;4.05;;;4.80;99.90;;;;;;503064;236;27426;-74
2021/12/13 02:10:16;;;;;;;5.45;4.25;;;4.80;99.90;;;;;;503072;236;27868;-73
2021/12/13 02:12:17;;;;;;;6.03;4.07;;;4.80;99.90;;;;;;503083;236;27510;-74
2021/12/13 02:14:19;;;;;;;7.43;4.80;;;4.80;99.90;;;;;;503077;236;27549;-74
2021/12/13 02:18:39;;;;;;;5.32;4.30;;;4.80;99.90;;;;;;503041;236;27449;-74
2021/12/13 02:20:40;;;;;;;5.35;3.95;;;4.80;99.90;;;;;;503069;236;27443;-74
2021/12/13 02:22:41;;;;;;;5.05;4.10;;;4.80;99.90;;;;;;503068;236;27965;-74
2021/12/13 02:24:43;;;;;;;4.45;4.05;;;4.80;99.90;;;;;;503044;236;28008;-74
2021/12/13 02:26:44;;;;;;;5.85;4.78;;;4.90;99.90;;;;;;503063;236;27952;-74
2021/12/13 02:28:45;;;;;;;5.40;4.20;;;4.90;99.90;;;;;;503036;236;27430;-74
2021/12/13 02:30:46;;;;;;;4.12;3.62;;;4.80;99.90;;;;;;503031;236;27466;-74
2021/12/13 02:32:48;;;;;;;3.92;3.53;;;4.80;99.90;;;;;;503067;236;27485;-74
2021/12/13 02:34:49;;;;;;;5.12;4.03;;;4.80;99.90;;;;;;503041;236;27526;-75
2021/12/13 02:36:50;;;;;;;5.43;4.18;;;4.80;99.90;;;;;;503059;236;27473;-74
2021/12/13 02:38:51;;;;;;;5.90;3.80;;;4.80;99.90;;;;;;503036;236;27442;-74
2021/12/13 02:40:53;;;;;;;4.40;3.62;;;4.80;99.90;;;;;;503064;236;27475;-74
2021/12/13 02:42:54;;;;;;;5.57;3.95;;;4.80;99.90;;;;;;503061;236;27488;-74
2021/12/13 02:44:57;;;;;;;5.12;3.97;;;4.80;99.90;;;;;;503063;236;27990;-74
2021/12/13 02:46:56;;;;;;;4.85;3.60;;;4.90;99.90;;;;;;502962;236;27977;-74
2021/12/13 02:48:58;;;;;;;4.75;3.62;;;4.90;99.90;;;;;;503058;236;27994;-74
2021/12/13 02:50:59;;;;;;;4.78;3.50;;;4.80;99.90;;;;;;503059;236;27489;-74
2021/12/13 02:53:00;;;;;;;4.47;3.75;;;4.80;99.90;;;;;;503059;236;27525;-74
2021/12/13 02:55:01;;;;;;;6.03;3.95;;;4.80;99.90;;;;;;503097;236;27447;-74
2021/12/13 02:57:03;;;;;;;4.82;3.65;;;4.80;99.90;;;;;;502923;236;27474;-74
2021/12/13 02:59:04;;;;;;;4.80;3.95;;;4.80;99.90;;;;;;503045;236;27451;-75
2021/12/13 03:01:05;;;;;;;5.10;3.60;;;4.80;99.90;;;;;;503087;236;27494;-74
2021/12/13 03:03:06;;;;;;;4.87;3.70;;;4.80;99.90;;;;;;503106;236;27468;-74
2021/12/13 03:05:08;;;;;;;4.30;3.87;;;4.80;99.90;;;;;;503110;236;27518;-74
2021/12/13 03:07:09;;;;;;;4.60;3.75;;;4.80;99.90;;;;;;503118;236;28004;-75
2021/12/13 03:09:10;;;;;;;5.15;3.95;;;4.90;99.90;;;;;;503074;236;27872;-74
2021/12/13 03:11:11;;;;;;;5.18;3.90;;;4.90;99.90;;;;;;503085;236;27940;-74
2021/12/13 03:13:13;;;;;;;6.82;4.43;;;4.80;99.90;;;;;;503080;236;27518;-74
2021/12/13 03:15:14;;;;;;;5.50;4.10;;;4.90;99.90;;;;;;503102;236;27438;-74
2021/12/13 03:17:15;;;;;;;6.10;3.78;;;4.90;99.90;;;;;;503092;236;27485;-74
2021/12/13 03:19:17;;;;;;;4.80;3.90;;;4.90;99.90;;;;;;503083;236;27490;-74
2021/12/13 03:21:18;;;;;;;4.32;3.50;;;4.90;99.90;;;;;;503041;236;27552;-74
2021/12/13 03:23:19;;;;;;;5.05;3.95;;;4.90;99.90;;;;;;503080;236;27518;-75
2021/12/13 03:25:20;;;;;;;4.18;3.75;;;4.80;99.90;;;;;;503096;236;27542;-75
2021/12/13 03:27:21;;;;;;;5.32;4.10;;;4.90;99.90;;;;;;503075;236;27558;-75
2021/12/13 03:29:23;;;;;;;4.78;3.75;;;4.80;99.90;;;;;;503076;236;27910;-74
2021/12/13 03:31:27;;;;;;;6.07;4.25;;;4.90;99.90;;;;;;503058;236;28067;-74
2021/12/13 03:33:28;;;;;;;4.97;4.22;;;4.90;99.90;;;;;;503051;236;28089;-74
2021/12/13 03:35:29;;;;;;;6.75;4.37;;;4.90;99.90;;;;;;503078;236;27485;-74
2021/12/13 03:37:30;;;;;;;5.22;4.00;;;4.90;99.90;;;;;;503093;236;27615;-74
2021/12/13 03:39:32;;;;;;;4.47;3.45;;;4.90;99.90;;;;;;503095;236;27548;-73
2021/12/13 03:41:33;;;;;;;6.50;4.65;;;4.90;99.90;;;;;;503087;236;27445;-73
2021/12/13 03:43:34;;;;;;;3.95;3.40;;;4.80;99.90;;;;;;503075;236;27479;-73
2021/12/13 03:45:37;;;;;;;4.78;3.85;;;4.80;99.90;;;;;;503069;236;27437;-74
2021/12/13 03:47:38;;;;;;;5.10;4.50;;;4.90;99.90;;;;;;502990;236;27869;-73
2021/12/13 03:49:38;;;;;;;4.62;3.92;;;4.90;99.90;;;;;;503041;236;27956;-74
2021/12/13 03:51:39;;;;;;;5.95;4.82;;;4.90;99.90;;;;;;503085;236;27986;-74
2021/12/13 03:53:40;;;;;;;7.70;4.68;;;4.90;99.90;;;;;;503072;236;27966;-74
2021/12/13 03:55:43;;;;;;;6.25;4.60;;;4.90;99.90;;;;;;503065;236;27901;-73
2021/12/13 03:57:43;;;;;;;5.35;4.05;;;4.90;99.90;;;;;;502957;236;27463;-74
2021/12/13 03:59:44;;;;;;;4.70;4.18;;;4.90;99.90;;;;;;503101;236;27482;-74
2021/12/13 04:01:45;;;;;;;4.07;3.65;;;4.90;99.90;;;;;;503114;236;27420;-74
2021/12/13 04:03:47;;;;;;;5.32;4.35;;;4.90;99.90;;;;;;503087;236;27560;-73
2021/12/13 04:05:48;;;;;;;4.65;3.75;;;4.80;99.90;;;;;;503056;236;27463;-74
2021/12/13 04:07:49;;;;;;;5.62;3.78;;;4.80;99.90;;;;;;503066;236;27493;-74
2021/12/13 04:09:50;;;;;;;6.05;4.32;;;4.80;99.90;;;;;;503100;236;27540;-74
2021/12/13 04:11:52;;;;;;;4.28;3.70;;;4.80;99.90;;;;;;503064;236;27553;-73
2021/12/13 04:13:54;;;;;;;3.65;3.17;;;4.80;99.90;;;;;;503116;236;27941;-74
2021/12/13 04:16:02;;;;;;;3.55;3.25;;;4.80;99.90;;;;;;503002;236;27886;-73
2021/12/13 04:18:02;;;;;;;5.45;3.47;;;4.80;99.90;;;;;;502388;236;27931;-73
2021/12/13 04:20:00;;;;;;;3.30;3.03;;;4.80;99.90;;;;;;502767;236;27479;-74
2021/12/13 04:22:01;;;;;;;3.70;3.05;;;4.80;99.90;;;;;;503114;236;27488;-73
2021/12/13 04:24:02;;;;;;;3.85;3.10;;;4.80;99.90;;;;;;503070;236;27483;-74
2021/12/13 04:26:03;;;;;;;3.45;3.15;;;4.80;99.90;;;;;;503068;236;27497;-74
2021/12/13 04:28:05;;;;;;;3.33;3.03;;;4.80;99.90;;;;;;503071;236;27979;-73
2021/12/13 04:30:06;;;;;;;3.10;2.80;;;4.80;99.90;;;;;;503051;236;27954;-74
2021/12/13 04:32:07;;;;;;;3.37;2.80;;;4.80;99.90;;;;;;503103;236;28093;-73
2021/12/13 04:34:08;;;;;;;2.78;2.58;;;4.80;99.90;;;;;;503060;236;27455;-74
2021/12/13 04:36:10;;;;;;;3.33;3.03;;;4.80;99.90;;;;;;503071;236;27582;-74
2021/12/13 04:38:11;;;;;;;3.55;2.75;;;4.70;99.90;;;;;;503062;236;27426;-74
2021/12/13 04:40:12;;;;;;;3.00;2.70;;;4.70;99.90;;;;;;503028;236;27471;-74
2021/12/13 04:42:13;;;;;;;2.65;2.40;;;4.70;99.90;;;;;;503024;236;27430;-72
2021/12/13 04:44:15;;;;;;;2.65;2.42;;;4.70;99.90;;;;;;503085;236;27455;-73
2021/12/13 04:46:17;;;;;;;4.35;2.50;;;4.70;99.90;;;;;;503083;236;27536;-73
2021/12/13 04:48:17;;;;;;;3.03;2.67;;;4.70;99.90;;;;;;503014;236;27468;-73
2021/12/13 04:50:18;;;;;;;3.65;2.97;;;4.70;99.90;;;;;;503045;236;27487;-74
2021/12/13 04:52:20;;;;;;;3.10;2.80;;;4.70;99.90;;;;;;503008;236;27892;-73
2021/12/13 04:54:21;;;;;;;2.58;2.37;;;4.70;99.90;;;;;;503039;236;27915;-74
2021/12/13 04:56:22;;;;;;;2.78;2.58;;;4.80;99.90;;;;;;503086;236;27956;-73
2021/12/13 04:58:23;;;;;;;3.05;2.75;;;4.70;99.90;;;;;;503073;236;27453;-74
2021/12/13 05:00:25;;;;;;;3.30;2.55;;;4.70;99.90;;;;;;503030;236;27455;-73
2021/12/13 05:02:26;;;;;;;2.80;2.60;;;4.70;99.90;;;;;;503082;236;27441;-73
2021/12/13 05:04:29;;;;;;;4.15;3.00;;;4.70;99.90;;;;;;503050;236;27478;-73
2021/12/13 05:06:29;;;;;;;2.90;2.60;;;4.70;99.90;;;;;;502938;236;27501;-74
2021/12/13 05:08:30;;;;;;;3.12;2.87;;;4.70;99.90;;;;;;503055;236;27457;-74
2021/12/13 05:10:31;;;;;;;3.22;2.50;;;4.70;99.90;;;;;;503044;236;27492;-74
2021/12/13 05:12:32;;;;;;;2.65;2.45;;;4.60;99.90;;;;;;503046;236;27495;-73
2021/12/13 05:14:33;;;;;;;2.72;2.53;;;4.70;99.90;;;;;;503051;236;27492;-74
2021/12/13 05:16:35;;;;;;;2.72;2.53;;;4.70;99.90;;;;;;503101;236;27920;-74
2021/12/13 05:18:36;;;;;;;3.00;2.67;;;4.70;99.90;;;;;;503064;236;27964;-74
2021/12/13 05:20:37;;;;;;;2.55;2.35;;;4.70;99.90;;;;;;503071;236;27957;-74
2021/12/13 05:22:38;;;;;;;2.97;2.60;;;4.70;99.90;;;;;;503037;236;27976;-74
2021/12/13 05:24:40;;;;;;;2.55;2.30;;;4.60;99.90;;;;;;503028;236;27547;-74
2021/12/13 05:26:41;;;;;;;3.08;2.67;;;4.60;99.90;;;;;;503047;236;27475;-73
2021/12/13 05:28:42;;;;;;;2.65;2.45;;;4.60;99.90;;;;;;503105;236;27436;-73
2021/12/13 05:30:43;;;;;;;2.40;2.20;;;4.60;99.90;;;;;;503078;236;27477;-74
2021/12/13 05:32:45;;;;;;;2.65;2.45;;;4.60;99.90;;;;;;503063;236;27518;-74
2021/12/13 05:34:46;;;;;;;2.50;2.30;;;4.60;99.90;;;;;;503051;236;27556;-73
2021/12/13 05:36:47;;;;;;;2.30;2.15;;;4.60;99.90;;;;;;503052;236;27590;-73
2021/12/13 05:38:48;;;;;;;2.20;2.00;;;4.60;99.90;;;;;;503075;236;27505;-74
2021/12/13 05:40:50;;;;;;;2.28;2.08;;;4.60;99.90;;;;;;503084;236;27500;-74
2021/12/13 05:42:51;;;;;;;2.03;1.90;;;4.60;99.90;;;;;;503046;236;27883;-73
2021/12/13 05:44:52;;;;;;;1.95;1.85;;;4.60;99.90;;;;;;503058;236;27965;-74
2021/12/13 05:46:53;;;;;;;2.15;1.95;;;4.60;99.90;;;;;;503033;236;27906;-73
2021/12/13 05:48:55;;;;;;;2.30;2.12;;;4.60;99.90;;;;;;503064;236;27465;-74
2021/12/13 05:50:56;;;;;;;2.22;2.05;;;4.50;99.90;;;;;;503064;236;27472;-73
2021/12/13 05:52:57;;;;;;;1.90;1.80;;;4.50;99.90;;;;;;503072;236;27478;-73
2021/12/13 05:54:58;;;;;;;2.50;2.30;;;4.50;99.90;;;;;;503057;236;27505;-74
2021/12/13 05:57:00;;;;;;;2.12;1.98;;;4.50;99.90;;;;;;503063;236;27431;-73
2021/12/13 05:59:01;;;;;;;2.25;2.05;;;4.50;99.90;;;;;;503037;236;27491;-73
2021/12/13 06:01:02;;;;;;;2.28;2.08;;;4.50;99.90;;;;;;503092;236;27485;-74
2021/12/13 06:03:03;;;;;;;1.70;1.60;;;4.50;99.90;;;;;;503068;236;27439;-73
2021/12/13 06:05:05;;;;;;;2.05;1.87;;;4.50;99.90;;;;;;503073;236;27482;-73
2021/12/13 06:07:06;;;;;;;1.77;1.67;;;4.50;99.90;;;;;;503049;236;27978;-73
2021/12/13 06:09:07;;;;;;;2.03;1.85;;;4.50;99.90;;;;;;503046;236;27947;-73
2021/12/13 06:11:09;;;;;;;1.90;1.80;;;4.50;99.90;;;;;;503095;236;27513;-73
2021/12/13 06:13:14;;;;;;;2.10;1.67;;;4.50;99.90;;;;;;503077;236;27453;-74
2021/12/13 06:15:11;;;;;;;2.40;2.20;;;4.50;99.90;;;;;;502714;236;27470;-73
2021/12/13 06:17:12;;;;;;;1.95;1.80;;;4.50;99.90;;;;;;503038;236;27485;-74
2021/12/13 06:19:14;;;;;;;2.42;2.17;;;4.50;99.90;;;;;;503024;236;27600;-74
2021/12/13 06:21:15;;;;;;;1.83;1.73;;;4.50;99.90;;;;;;503033;236;27472;-74
2021/12/13 06:23:16;;;;;;;1.60;1.50;;;4.50;99.90;;;;;;502972;236;27522;-74
2021/12/13 06:25:17;;;;;;;2.10;1.98;;;4.50;99.90;;;;;;502952;236;27486;-74
2021/12/13 06:27:19;;;;;;;2.12;2.03;;;4.50;99.90;;;;;;502969;236;27912;-74
2021/12/13 06:29:20;;;;;;;1.83;1.73;;;4.50;99.90;;;;;;503001;236;28079;-74
2021/12/13 06:31:21;;;;;;;1.95;1.85;;;4.50;99.90;;;;;;503073;236;28034;-73
2021/12/13 06:33:22;;;;;;;2.17;2.00;;;4.50;99.90;;;;;;503070;236;27886;-74
2021/12/13 06:35:24;;;;;;;1.95;1.85;;;4.40;99.90;;;;;;503054;236;27582;-73
2021/12/13 06:37:25;;;;;;;3.10;2.15;;;4.40;99.90;;;;;;503028;236;27446;-74
2021/12/13 06:39:26;;;;;;;2.40;2.20;;;4.50;99.90;;;;;;503068;236;27583;-73
2021/12/13 06:41:27;;;;;;;2.10;2.00;;;4.50;99.90;;;;;;503151;236;27517;-73
2021/12/13 06:43:29;;;;;;;2.60;2.40;;;4.50;99.90;;;;;;503112;236;27512;-74
2021/12/13 06:45:30;;;;;;;2.03;1.92;;;4.40;99.90;;;;;;503098;236;27487;-75
2021/12/13 06:47:31;;;;;;;2.67;2.47;;;4.40;99.90;;;;;;503080;236;27430;-72
2021/12/13 06:49:32;;;;;;;2.33;2.12;;;4.40;99.90;;;;;;503051;236;27502;-74
2021/12/13 06:51:34;;;;;;;2.65;2.35;;;4.50;99.90;;;;;;503105;236;28036;-73
2021/12/13 06:53:35;;;;;;;2.92;2.45;;;4.50;99.90;;;;;;503060;236;27905;-74
2021/12/13 06:55:36;;;;;;;2.53;2.30;;;4.50;99.90;;;;;;503087;236;28039;-73
2021/12/13 06:57:37;;;;;;;2.60;2.40;;;4.50;99.90;;;;;;503081;236;28038;-73
2021/12/13 06:59:39;;;;;;;2.20;2.00;;;4.50;99.90;;;;;;503081;236;27463;-73
2021/12/13 07:01:40;;;;;;;2.10;1.90;;;4.50;99.90;;;;;;503083;236;27497;-73
2021/12/13 07:03:41;;;;;;;1.90;1.80;;;4.50;99.90;;;;;;503083;236;27437;-74
2021/12/13 07:05:42;;;;;;;2.40;2.20;;;4.50;99.90;;;;;;503080;236;27451;-74
2021/12/13 07:07:44;;;;;;;2.40;2.17;;;4.50;99.90;;;;;;503043;236;27457;-74
2021/12/13 07:09:45;;;;;;;2.58;2.33;;;4.50;99.90;;;;;;503061;236;27512;-74
2021/12/13 07:11:46;;;;;;;2.85;2.50;;;4.50;99.90;;;;;;503058;236;27454;-75
2021/12/13 07:13:48;;;;;;;3.75;2.92;;;4.50;99.90;;;;;;503082;236;27500;-74
2021/12/13 07:15:49;;;;;;;2.58;2.25;;;4.50;99.90;;;;;;503051;236;27498;-74
2021/12/13 07:17:50;;;;;;;3.12;2.80;;;4.50;99.90;;;;;;503034;236;27914;-73
2021/12/13 07:19:51;;;;;;;2.50;2.30;;;4.50;99.90;;;;;;503067;236;27966;-73
2021/12/13 07:21:54;;;;;;;3.50;2.70;;;4.50;99.90;;;;;;503045;236;29831;-74
2021/12/13 07:23:54;;;;;;;3.22;2.92;;;4.50;99.90;;;;;;502923;236;28003;-73
2021/12/13 07:25:55;;;;;;;2.90;2.60;;;4.50;99.90;;;;;;503075;236;27544;-73
2021/12/13 07:27:56;;;;;;;2.80;2.40;;;4.50;99.90;;;;;;503067;236;27443;-73
2021/12/13 07:29:57;;;;;;;2.50;2.30;;;4.50;99.90;;;;;;503063;236;27505;-74
2021/12/13 07:31:59;;;;;;;4.15;2.92;;;4.60;99.90;;;;;;503042;236;27455;-75
2021/12/13 07:34:00;;;;;;;4.40;2.87;;;4.50;99.90;;;;;;503057;236;27493;-74
2021/12/13 07:36:01;;;;;;;3.45;2.90;;;4.50;99.90;;;;;;503055;236;27512;-76
2021/12/13 07:38:02;;;;;;;5.12;2.90;;;4.50;99.90;;;;;;503091;236;27455;-73
2021/12/13 07:40:04;;;;;;;2.85;2.55;;;4.50;99.90;;;;;;503058;236;27489;-73
2021/12/13 07:42:05;;;;;;;4.20;3.20;;;4.50;99.90;;;;;;503050;236;27438;-73
2021/12/13 07:44:06;;;;;;;3.45;2.75;;;4.50;99.90;;;;;;503072;236;27986;-73
2021/12/13 07:46:09;;;;;;;4.37;2.30;;;4.40;99.90;;;;;;503098;236;27958;-73
2021/12/13 07:48:09;;;;;;;3.00;2.55;;;4.40;99.90;;;;;;502969;236;27889;-73
2021/12/13 07:50:10;;;;;;;3.62;2.70;;;4.50;99.90;;;;;;503076;236;27473;-73
2021/12/13 07:52:11;;;;;;;2.60;2.40;;;4.50;99.90;;;;;;503043;236;27478;-73
2021/12/13 07:54:13;;;;;;;2.55;2.30;;;4.50;99.90;;;;;;503112;236;27529;-73
2021/12/13 07:56:14;;;;;;;2.90;2.67;;;4.50;99.90;;;;;;502979;236;27461;-73
2021/12/13 07:58:15;;;;;;;2.60;2.40;;;4.50;99.90;;;;;;503080;236;27530;-74
2021/12/13 08:00:16;;;;;;;3.95;2.70;;;4.50;99.90;;;;;;503035;236;27525;-73
2021/12/13 08:02:17;;;;;;;2.67;2.47;;;4.50;99.90;;;;;;502989;236;27497;-73
2021/12/13 08:04:19;;;;;;;2.35;2.25;;;4.60;99.90;;;;;;502897;236;27454;-73
2021/12/13 08:06:20;;;;;;;2.90;2.60;;;4.60;99.90;;;;;;502826;236;27590;-76
2021/12/13 08:08:21;;;;;;;2.75;2.55;;;4.60;99.90;;;;;;503057;236;27989;-73
2021/12/13 08:10:22;;;;;;;2.75;2.50;;;4.70;99.90;;;;;;502950;236;27945;-73
2021/12/13 08:12:24;;;;;;;2.42;2.22;;;4.80;99.90;;;;;;503089;236;28295;-75
2021/12/13 08:14:25;;;;;;;3.22;2.58;;;4.80;99.90;;;;;;503066;236;27439;-76
2021/12/13 08:16:26;;;;;;;3.75;3.03;;;4.70;99.90;;;;;;503097;236;27528;-75
2021/12/13 08:18:27;;;;;;;3.25;2.95;;;4.70;99.90;;;;;;503072;236;27471;-75
2021/12/13 08:20:29;;;;;;;2.97;2.67;;;4.80;99.90;;;;;;503049;236;27481;-75
2021/12/13 08:22:30;;;;;;;2.47;2.30;;;4.80;99.90;;;;;;503087;236;27913;-75
2021/12/13 08:24:31;;;;;;;3.08;2.40;;;4.80;99.90;;;;;;503093;236;27432;-75
2021/12/13 08:26:32;;;;;;;2.20;2.10;;;4.80;99.90;;;;;;503087;236;27481;-75
2021/12/13 08:28:34;;;;;;;2.50;2.30;;;4.80;99.90;;;;;;503096;236;27497;-75
2021/12/13 08:30:35;;;;;;;2.30;1.90;;;4.80;99.90;;;;;;503070;236;27488;-75
2021/12/13 08:32:36;;;;;;;3.03;2.72;;;4.90;99.90;;;;;;503086;236;28089;-78
2021/12/13 08:34:37;;;;;;;2.50;2.30;;;4.90;99.90;;;;;;503074;236;27964;-76
2021/12/13 08:36:39;;;;;;;2.40;2.20;;;4.90;99.90;;;;;;503082;236;27580;-75
2021/12/13 08:38:40;;;;;;;2.40;2.30;;;4.90;99.90;;;;;;503077;236;27429;-75
2021/12/13 08:40:41;;;;;;;2.50;2.30;;;4.90;99.90;;;;;;503067;236;27557;-75
2021/12/13 08:42:42;;;;;;;2.95;2.65;;;4.90;99.90;;;;;;503063;236;27434;-75
2021/12/13 08:44:44;;;;;;;2.10;2.00;;;5.00;99.90;;;;;;503110;236;27563;-75
2021/12/13 08:46:45;;;;;;;2.37;2.28;;;5.00;99.90;;;;;;503088;236;27470;-75
2021/12/13 08:48:46;;;;;;;2.28;2.17;;;5.00;99.90;;;;;;503105;236;27447;-75
2021/12/13 08:50:47;;;;;;;2.90;2.70;;;5.00;99.90;;;;;;503080;236;28060;-75
2021/12/13 08:52:49;;;;;;;2.47;2.28;;;5.10;99.90;;;;;;503079;236;28802;-75
2021/12/13 08:54:54;;;;;;;2.60;2.40;;;5.20;99.90;;;;;;503083;236;27909;-76
2021/12/13 08:56:51;;;;;;;2.62;2.42;;;5.20;99.90;;;;;;502772;236;27552;-76
2021/12/13 08:58:53;;;;;;;3.55;2.28;;;5.30;99.90;;;;;;503094;236;27436;-75
2021/12/13 09:00:54;;;;;;;2.50;2.30;;;5.40;99.90;;;;;;503067;236;27468;-75
2021/12/13 09:02:55;;;;;;;2.20;2.00;;;5.40;99.90;;;;;;503071;236;27454;-75
2021/12/13 09:04:56;;;;;;;2.28;2.05;;;5.50;99.90;;;;;;503078;236;27430;-76
2021/12/13 09:06:57;;;;;;;2.42;2.03;;;5.50;99.90;;;;;;503104;236;27507;-75
2021/12/13 09:08:59;;;;;;;2.17;1.98;;;5.60;99.90;;;;;;503097;236;27534;-74
2021/12/13 09:11:00;;;;;;;2.10;2.00;;;5.60;99.90;;;;;;503067;236;27988;-76
2021/12/13 09:13:01;;;;;;;1.95;1.67;;;5.70;99.90;;;;;;503114;236;28004;-73
2021/12/13 09:15:03;;;;;;;1.85;1.75;;;5.70;99.90;;;;;;503065;236;27441;-73
2021/12/13 09:17:16;;;;;;;2.20;2.00;;;5.80;99.90;;;;;;503060;236;27558;-76
2021/12/13 09:19:14;;;;;;;1.90;1.80;;;5.80;99.90;;;;;;502878;236;27990;-75
2021/12/13 09:21:17;;;;;;;2.20;2.00;;;5.80;99.90;;;;;;503122;236;27905;-73
2021/12/13 09:23:16;;;;;;;1.75;1.65;;;5.80;99.90;;;;;;503002;236;27459;-73
2021/12/13 09:25:18;;;;;;;2.62;2.42;;;5.80;99.90;;;;;;503142;236;27545;-73
2021/12/13 09:27:21;;;;;;;2.10;1.90;;;5.80;99.90;;;;;;503087;236;27446;-76
2021/12/13 09:29:20;;;;;;;1.60;1.50;;;5.90;99.90;;;;;;502963;236;27471;-75
2021/12/13 09:31:21;;;;;;;1.87;1.77;;;5.90;99.90;;;;;;503093;236;27437;-75
2021/12/13 09:33:23;;;;;;;1.90;1.80;;;5.90;99.90;;;;;;503046;236;28067;-76
2021/12/13 09:35:24;;;;;;;1.80;1.70;;;5.90;99.90;;;;;;503088;236;28063;-75
2021/12/13 09:37:25;;;;;;;1.67;1.58;;;5.80;99.90;;;;;;503106;236;27943;-74
2021/12/13 09:39:26;;;;;;;1.80;1.70;;;5.90;99.90;;;;;;503096;236;27493;-73
2021/12/13 09:41:28;;;;;;;2.50;2.30;;;6.00;99.90;;;;;;503083;236;27489;-75
2021/12/13 09:43:29;;;;;;;1.70;1.60;;;6.10;99.90;;;;;;503064;236;27545;-76
2021/12/13 09:45:30;;;;;;;1.77;1.67;;;6.10;99.90;;;;;;503059;236;27928;-76
2021/12/13 09:47:31;;;;;;;1.60;1.50;;;6.20;99.90;;;;;;503056;236;27499;-76
2021/12/13 09:49:33;;;;;;;2.00;1.90;;;6.20;99.90;;;;;;503037;236;27989;-73
2021/12/13 09:51:34;;;;;;;2.03;1.92;;;6.30;99.90;;;;;;503092;236;27920;-76
2021/12/13 09:53:35;;;;;;;2.00;1.90;;;6.30;99.90;;;;;;503062;236;27588;-76
2021/12/13 09:55:36;;;;;;;2.43;2.23;;;6.30;99.90;;;;;;503109;236;27488;-76
2021/12/13 09:57:38;;;;;;;2.50;2.30;;;6.20;99.90;;;;;;503111;236;28805;-75
2021/12/13 09:59:39;;;;;;;1.80;1.70;;;6.30;99.90;;;;;;503097;236;27480;-76
2021/12/13 10:01:40;;;;;;;2.35;2.15;;;6.20;99.90;;;;;;503055;236;27431;-76
2021/12/13 10:03:41;;;;;;;1.90;1.80;;;6.20;99.90;;;;;;503122;236;27449;-76
2021/12/13 10:05:43;;;;;;;1.77;1.67;;;6.20;99.90;;;;;;503138;236;27961;-74
2021/12/13 10:07:44;;;;;;;1.83;1.73;;;6.30;99.90;;;;;;503117;236;27897;-74
2021/12/13 10:09:45;;;;;;;1.95;1.85;;;6.30;99.90;;;;;;503119;236;27560;-73
2021/12/13 10:11:46;;;;;;;2.28;2.12;;;6.30;99.90;;;;;;503084;236;27470;-75
2021/12/13 10:13:48;;;;;;;2.17;2.08;;;6.40;99.90;;;;;;503110;236;27482;-76
2021/12/13 10:15:49;;;;;;;1.92;1.83;;;6.40;99.90;;;;;;503100;236;27512;-76
2021/12/13 10:17:50;;;;;;;2.10;2.00;;;6.40;99.90;;;;;;503099;236;27446;-75
2021/12/13 10:19:51;;;;;;;2.20;2.10;;;6.40;99.90;;;;;;503083;236;27958;-76
2021/12/13 10:21:53;;;;;;;2.00;1.90;;;6.40;99.90;;;;;;503144;236;27964;-76
2021/12/13 10:23:54;;;;;;;3.28;2.20;;;6.50;99.90;;;;;;503110;236;27446;-76
2021/12/13 10:25:55;;;;;;;2.45;2.25;;;6.40;99.90;;;;;;503115;236;27577;-76
2021/12/13 10:27:56;;;;;;;2.70;2.50;;;6.40;99.90;;;;;;503113;236;27511;-76
2021/12/13 10:29:58;;;;;;;2.30;2.10;;;6.40;99.90;;;;;;503104;236;27576;-75
2021/12/13 10:32:00;;;;;;;2.80;2.57;;;6.40;99.90;;;;;;503124;236;27558;-74
2021/12/13 10:34:00;;;;;;;3.90;2.33;;;6.40;99.90;;;;;;503107;236;28374;-74
2021/12/13 10:36:02;;;;;;;2.45;2.30;;;6.50;99.90;;;;;;503113;236;29353;-76
2021/12/13 10:38:03;;;;;;;2.70;2.50;;;6.50;99.90;;;;;;503117;236;28040;-76
2021/12/13 10:40:04;;;;;;;2.80;2.60;;;6.50;99.90;;;;;;503090;236;27479;-76
2021/12/13 10:42:05;;;;;;;2.40;2.23;;;6.50;99.90;;;;;;503146;236;27563;-76